Time;durP1;ratioP1;P1;durP2;ratioP2;P2;SDS_P1;SDS_P2;PMS_P1;PMS_P2;Temp;Humidity;BMP_temperature;BMP_pressure;BME280_temperature;BME280_humidity;BME280_pressure;Samples;Min_cycle;Max_cycle;Signal;HPM_P1;HPM_P2
2022/10/20 00:01:34;;;;;;;88.57;46.35;;;;;;;16.41;100.00;100992.13;4907912;29;20032;-90
2022/10/20 00:04:01;;;;;;;86.95;48.88;;;;;;;16.47;100.00;100996.75;4877809;29;20109;-90
2022/10/20 00:06:30;;;;;;;93.70;49.58;;;;;;;16.44;100.00;100997.94;4895989;29;20398;-90
2022/10/20 00:08:59;;;;;;;92.32;48.10;;;;;;;16.47;100.00;100997.56;4915705;29;20104;-89
2022/10/20 00:11:25;;;;;;;85.78;47.72;;;;;;;16.41;100.00;101005.50;4915187;29;20056;-90
2022/10/20 00:13:52;;;;;;;86.57;44.88;;;;;;;16.61;100.00;100998.56;4910662;29;20052;-92
2022/10/20 00:16:18;;;;;;;82.72;45.67;;;;;;;16.59;100.00;101002.47;4908268;29;20048;-90
2022/10/20 00:18:44;;;;;;;86.13;47.72;;;;;;;16.46;100.00;101005.78;4888064;29;20127;-91
2022/10/20 00:21:13;;;;;;;87.55;47.00;;;;;;;16.47;100.00;101007.47;4901841;29;20056;-91
2022/10/20 00:23:40;;;;;;;90.95;46.92;;;;;;;16.42;100.00;101001.81;4902286;29;20171;-91
2022/10/20 00:26:10;;;;;;;90.70;46.95;;;;;;;16.50;100.00;100991.03;4885894;29;20045;-91
2022/10/20 00:28:35;;;;;;;91.97;46.45;;;;;;;16.35;100.00;100998.22;4901277;29;20072;-89
2022/10/20 00:31:02;;;;;;;94.63;46.92;;;;;;;16.18;100.00;100997.63;4900218;29;20064;-91
2022/10/20 00:33:27;;;;;;;90.45;48.50;;;;;;;16.09;100.00;100997.91;4901300;29;20037;-90
2022/10/20 00:36:09;;;;;;;93.15;48.53;;;;;;;16.26;100.00;100996.69;4902263;29;20028;-91
2022/10/20 00:38:35;;;;;;;88.95;48.35;;;;;;;16.40;100.00;100995.84;4901720;29;20045;-89
2022/10/20 00:41:02;;;;;;;95.93;47.15;;;;;;;16.53;100.00;101001.34;4901086;29;20032;-91
2022/10/20 00:43:57;;;;;;;88.40;47.85;;;;;;;16.61;100.00;100987.03;4900752;29;20164;-92
2022/10/20 00:46:35;;;;;;;83.80;45.85;;;;;;;16.67;100.00;100987.09;4898190;29;20112;-91
2022/10/20 00:49:21;;;;;;;87.90;46.50;;;;;;;16.54;100.00;100986.94;4900257;29;20044;-91
2022/10/20 00:51:47;;;;;;;90.90;47.78;;;;;;;16.49;100.00;100989.34;4903362;29;20105;-90
2022/10/20 00:54:22;;;;;;;94.40;49.50;;;;;;;16.41;100.00;100987.63;4924490;29;20128;-91
2022/10/20 00:56:50;;;;;;;93.93;48.95;;;;;;;16.39;100.00;100986.16;4926505;29;20061;-90
2022/10/20 00:59:20;;;;;;;88.03;46.70;;;;;;;16.46;100.00;100987.06;4926641;29;20039;-90
2022/10/20 01:01:47;;;;;;;100.80;50.08;;;;;;;16.45;100.00;100985.38;4928833;29;21203;-91
2022/10/20 01:04:14;;;;;;;96.35;50.45;;;;;;;16.23;100.00;100986.38;4928375;29;20108;-89
2022/10/20 01:06:40;;;;;;;94.38;49.40;;;;;;;16.33;100.00;100990.41;4926891;29;20434;-91
2022/10/20 01:09:06;;;;;;;89.53;46.38;;;;;;;16.36;100.00;100991.88;4929243;29;20036;-91
2022/10/20 01:11:43;;;;;;;87.82;48.70;;;;;;;16.20;100.00;100989.44;4929737;29;20059;-89
2022/10/20 01:14:31;;;;;;;85.97;46.03;;;;;;;16.29;100.00;100988.28;4923892;29;20047;-89
2022/10/20 01:17:22;;;;;;;93.97;49.33;;;;;;;16.22;100.00;100982.88;4922479;29;20039;-88
2022/10/20 01:20:27;;;;;;;97.43;51.13;;;;;;;16.28;100.00;100987.47;4924083;29;20100;-89
2022/10/20 01:23:04;;;;;;;101.40;50.70;;;;;;;16.28;100.00;100984.78;4922840;29;20044;-91
2022/10/20 01:25:53;;;;;;;97.38;50.42;;;;;;;16.11;100.00;100982.53;4923274;29;20127;-90
2022/10/20 01:28:29;;;;;;;99.93;51.50;;;;;;;16.17;100.00;100984.44;4904280;29;20490;-91
2022/10/20 01:31:02;;;;;;;105.95;51.40;;;;;;;16.11;100.00;100974.50;4920436;29;20040;-90
2022/10/20 01:33:51;;;;;;;86.90;47.30;;;;;;;16.30;100.00;100985.44;4920907;29;20086;-88
2022/10/20 01:36:24;;;;;;;89.03;47.47;;;;;;;16.42;100.00;100986.59;4926696;29;20032;-90
2022/10/20 01:39:05;;;;;;;99.10;49.03;;;;;;;16.26;100.00;100989.50;4927751;29;20051;-91
2022/10/20 01:41:38;;;;;;;90.90;48.92;;;;;;;15.99;100.00;100987.50;4922323;29;20067;-89
2022/10/20 01:44:07;;;;;;;95.82;47.83;;;;;;;15.96;100.00;100974.50;4923710;29;20028;-90
2022/10/20 01:46:35;;;;;;;98.97;47.47;;;;;;;15.83;100.00;100972.50;4924298;29;20410;-90
2022/10/20 01:49:03;;;;;;;91.07;43.75;;;;;;;16.12;100.00;100971.63;4923999;29;20035;-89
2022/10/20 01:51:33;;;;;;;89.38;46.13;;;;;;;16.29;100.00;100972.25;4920432;29;20048;-89
2022/10/20 01:53:59;;;;;;;80.13;45.45;;;;;;;16.40;100.00;100979.78;4923512;29;20103;-90
2022/10/20 01:57:09;;;;;;;84.47;47.05;;;;;;;16.25;100.00;100971.78;4926754;29;20474;-90
2022/10/20 02:00:02;;;;;;;85.18;47.50;;;;;;;16.16;100.00;100969.41;4925299;29;20050;-89
2022/10/20 02:02:54;;;;;;;85.00;45.80;;;;;;;16.16;100.00;100966.75;4929586;29;20040;-90
2022/10/20 02:05:45;;;;;;;86.13;47.10;;;;;;;16.06;100.00;100974.22;4924638;29;20072;-89
2022/10/20 02:08:24;;;;;;;97.88;46.83;;;;;;;15.92;100.00;100963.38;4924725;29;20035;-90
2022/10/20 02:10:54;;;;;;;92.00;48.35;;;;;;;15.78;100.00;100964.19;4924546;29;20032;-89
2022/10/20 02:13:20;;;;;;;100.15;52.30;;;;;;;15.72;100.00;100967.59;4922365;29;20103;-89
2022/10/20 02:15:51;;;;;;;107.20;53.85;;;;;;;15.57;100.00;100972.13;4922090;29;20024;-89
2022/10/20 02:18:27;;;;;;;103.47;53.00;;;;;;;15.45;100.00;100965.53;4921606;29;20051;-89
2022/10/20 02:20:56;;;;;;;97.50;52.25;;;;;;;15.50;100.00;100963.19;4921407;29;20040;-88
2022/10/20 02:23:22;;;;;;;108.32;53.28;;;;;;;15.46;100.00;100969.88;4921220;29;20071;-89
2022/10/20 02:25:51;;;;;;;106.35;54.17;;;;;;;15.53;100.00;100960.16;4920355;29;20047;-89
2022/10/20 02:28:19;;;;;;;110.72;52.75;;;;;;;15.55;100.00;100973.31;4904416;29;20047;-87
2022/10/20 02:30:46;;;;;;;104.63;52.58;;;;;;;15.52;100.00;100971.84;4921436;29;20423;-88
2022/10/20 02:33:13;;;;;;;103.75;53.17;;;;;;;15.58;100.00;100967.63;4919851;29;20028;-90
2022/10/20 02:35:47;;;;;;;105.70;52.90;;;;;;;15.54;100.00;100977.84;4921758;29;20478;-88
2022/10/20 02:38:12;;;;;;;107.78;54.22;;;;;;;15.47;100.00;100974.22;4921434;29;20033;-89
2022/10/20 02:40:38;;;;;;;96.75;50.22;;;;;;;15.53;100.00;100976.19;4920937;29;20052;-88
2022/10/20 02:43:06;;;;;;;111.93;52.40;;;;;;;15.33;100.00;100977.69;4920671;29;20256;-89
2022/10/20 02:45:35;;;;;;;98.45;51.08;;;;;;;15.29;100.00;100979.88;4903898;29;20064;-88
2022/10/20 02:48:00;;;;;;;98.75;49.15;;;;;;;15.29;100.00;100976.38;4921057;29;20478;-89
2022/10/20 02:50:26;;;;;;;99.43;49.78;;;;;;;15.24;100.00;100981.44;4920158;29;20024;-89
2022/10/20 02:52:51;;;;;;;94.45;50.83;;;;;;;15.19;100.00;100981.16;4921478;29;20035;-90
2022/10/20 02:55:17;;;;;;;92.65;48.63;;;;;;;15.28;100.00;100978.22;4920893;29;20047;-89
2022/10/20 02:57:43;;;;;;;97.65;51.10;;;;;;;15.30;100.00;100988.72;4923053;29;20168;-92
2022/10/20 03:00:09;;;;;;;86.32;45.97;;;;;;;15.42;100.00;100992.59;4925997;29;20059;-89
2022/10/20 03:02:34;;;;;;;94.82;47.60;;;;;;;15.34;100.00;100990.03;4921422;29;20044;-90
2022/10/20 03:05:00;;;;;;;96.63;48.70;;;;;;;15.31;100.00;100987.72;4921000;29;20033;-88
2022/10/20 03:07:25;;;;;;;93.05;46.80;;;;;;;15.28;100.00;100996.09;4921252;29;20024;-90
2022/10/20 03:09:51;;;;;;;87.53;45.83;;;;;;;15.47;100.00;100991.06;4921322;29;20447;-88
2022/10/20 03:12:17;;;;;;;90.97;47.17;;;;;;;15.44;100.00;100996.75;4921465;29;20092;-90
2022/10/20 03:14:42;;;;;;;87.68;47.22;;;;;;;15.59;100.00;100987.97;4921073;29;20036;-90
2022/10/20 03:17:08;;;;;;;89.25;47.25;;;;;;;15.52;100.00;100993.22;4919341;29;20075;-89
2022/10/20 03:19:34;;;;;;;91.05;46.58;;;;;;;15.34;100.00;100998.03;4903452;29;20151;-89
2022/10/20 03:21:59;;;;;;;99.32;48.35;;;;;;;15.21;100.00;100992.50;4921228;29;20024;-88
2022/10/20 03:24:25;;;;;;;95.47;48.53;;;;;;;15.18;100.00;100999.00;4920777;29;20036;-89
2022/10/20 03:26:50;;;;;;;98.15;48.50;;;;;;;15.22;100.00;101000.31;4922715;29;20036;-90
2022/10/20 03:29:16;;;;;;;91.90;48.47;;;;;;;15.15;100.00;101003.88;4924236;29;20088;-91
2022/10/20 03:31:41;;;;;;;96.30;47.72;;;;;;;15.09;100.00;101004.59;4923361;29;20501;-90
2022/10/20 03:34:07;;;;;;;100.30;50.28;;;;;;;15.16;100.00;101002.88;4907754;29;20044;-89
2022/10/20 03:36:33;;;;;;;81.28;45.90;;;;;;;15.28;100.00;100999.56;4924351;29;20032;-89
2022/10/20 03:38:58;;;;;;;87.97;47.72;;;;;;;15.20;100.00;101006.84;4923828;29;20032;-90
2022/10/20 03:41:24;;;;;;;91.97;48.67;;;;;;;15.08;100.00;101002.94;4922919;29;20036;-91
2022/10/20 03:43:49;;;;;;;92.50;47.40;;;;;;;15.18;100.00;100999.00;4920803;29;20036;-90
2022/10/20 03:46:15;;;;;;;96.80;47.83;;;;;;;15.16;100.00;101000.19;4921581;29;20457;-91
2022/10/20 03:48:40;;;;;;;93.43;46.97;;;;;;;15.06;100.00;101005.78;4921926;29;20048;-89
2022/10/20 03:51:08;;;;;;;97.32;48.45;;;;;;;15.05;100.00;101014.78;4920627;29;20344;-89
2022/10/20 03:53:34;;;;;;;92.90;48.92;;;;;;;14.99;100.00;101012.84;4920358;29;20040;-91
2022/10/20 03:56:08;;;;;;;98.72;49.25;;;;;;;14.97;100.00;101007.72;4920788;29;20039;-90
2022/10/20 03:58:34;;;;;;;100.47;51.08;;;;;;;15.04;100.00;101004.31;4921386;29;20036;-90
2022/10/20 04:01:00;;;;;;;105.40;50.40;;;;;;;15.02;100.00;101016.00;4921267;29;20040;-89
2022/10/20 04:03:26;;;;;;;102.57;49.42;;;;;;;14.93;100.00;101005.56;4920866;29;20039;-89
2022/10/20 04:05:51;;;;;;;100.63;50.72;;;;;;;14.86;100.00;101009.94;4921238;29;20088;-91
2022/10/20 04:08:17;;;;;;;107.68;51.13;;;;;;;14.92;100.00;101010.06;4918786;29;20463;-91
2022/10/20 04:10:42;;;;;;;107.68;51.42;;;;;;;14.84;100.00;101011.97;4920378;29;20036;-89
2022/10/20 04:13:08;;;;;;;101.28;49.95;;;;;;;14.83;100.00;101026.31;4918881;29;20044;-91
2022/10/20 04:15:33;;;;;;;96.53;49.75;;;;;;;14.90;100.00;101024.59;4920987;29;20044;-89
2022/10/20 04:17:59;;;;;;;94.43;47.90;;;;;;;14.84;100.00;101028.81;4920693;29;20036;-88
2022/10/20 04:20:24;;;;;;;97.35;49.50;;;;;;;14.79;100.00;101025.84;4923877;29;20047;-90
2022/10/20 04:22:55;;;;;;;91.57;47.05;;;;;;;14.99;100.00;101024.34;4929008;29;20033;-89
2022/10/20 04:25:21;;;;;;;106.13;48.92;;;;;;;15.00;100.00;101026.03;4928870;29;20044;-90
2022/10/20 04:27:46;;;;;;;101.80;49.55;;;;;;;14.94;100.00;101024.06;4928593;29;20115;-88
2022/10/20 04:30:12;;;;;;;102.85;50.67;;;;;;;14.82;100.00;101030.81;4925676;29;20072;-87
2022/10/20 04:32:38;;;;;;;100.75;50.80;;;;;;;14.64;100.00;101032.94;4930946;29;20041;-88
2022/10/20 04:35:06;;;;;;;105.25;51.55;;;;;;;14.55;100.00;101025.97;4936230;29;20068;-91
2022/10/20 04:37:32;;;;;;;106.75;51.75;;;;;;;14.48;100.00;101028.50;4913301;29;20071;-85
2022/10/20 04:39:57;;;;;;;105.60;51.97;;;;;;;14.45;100.00;101028.88;4930171;29;20040;-88
2022/10/20 04:42:24;;;;;;;102.85;52.40;;;;;;;14.39;100.00;101034.91;4926217;29;20032;-91
2022/10/20 04:44:49;;;;;;;106.70;52.55;;;;;;;14.55;100.00;101041.97;4915387;29;20617;-90
2022/10/20 04:47:15;;;;;;;99.22;49.45;;;;;;;14.71;100.00;101039.25;4925682;29;20083;-92
2022/10/20 04:49:41;;;;;;;102.30;50.13;;;;;;;14.64;100.00;101030.28;4929808;29;20043;-92
2022/10/20 04:52:06;;;;;;;104.15;50.13;;;;;;;14.50;100.00;101031.03;4927738;29;20427;-92
2022/10/20 04:54:32;;;;;;;102.07;50.15;;;;;;;14.45;100.00;101034.19;4924001;29;20044;-90
2022/10/20 04:56:58;;;;;;;105.53;50.42;;;;;;;14.41;100.00;101042.75;4925648;29;20103;-92
2022/10/20 04:59:24;;;;;;;100.95;50.22;;;;;;;14.51;100.00;101032.69;4942537;23;20028;-90
2022/10/20 05:01:49;;;;;;;107.82;50.78;;;;;;;14.50;100.00;101039.03;4993829;23;20053;-93
2022/10/20 05:04:20;;;;;;;98.47;49.53;;;;;;;14.48;100.00;101031.19;4894207;29;20044;-88
2022/10/20 05:06:48;;;;;;;94.75;47.78;;;;;;;14.69;100.00;101041.25;4886905;29;20128;-89
2022/10/20 05:09:14;;;;;;;87.68;45.65;;;;;;;14.84;100.00;101039.50;4892222;29;20104;-87
2022/10/20 05:11:40;;;;;;;101.72;48.83;;;;;;;14.70;100.00;101037.56;4893028;29;20153;-92
2022/10/20 05:14:06;;;;;;;99.75;49.20;;;;;;;14.72;100.00;101043.56;4888232;29;20033;-92
2022/10/20 05:16:33;;;;;;;97.18;49.90;;;;;;;14.53;100.00;101044.00;4903242;29;20041;-88
2022/10/20 05:18:58;;;;;;;100.97;50.13;;;;;;;14.46;100.00;101046.53;4891174;29;20112;-94
2022/10/20 05:21:31;;;;;;;104.63;49.55;;;;;;;14.43;100.00;101046.91;4890177;29;20033;-93
2022/10/20 05:24:16;;;;;;;103.85;50.08;;;;;;;14.48;100.00;101043.72;4879111;29;20106;-93
2022/10/20 05:26:42;;;;;;;107.25;50.95;;;;;;;14.50;100.00;101041.69;4891218;29;20045;-88
2022/10/20 05:29:11;;;;;;;105.53;49.45;;;;;;;14.46;100.00;101043.88;4888289;29;20029;-89
2022/10/20 05:31:39;;;;;;;104.63;49.08;;;;;;;14.44;100.00;101043.22;4886063;29;20041;-90
2022/10/20 05:34:06;;;;;;;98.47;49.30;;;;;;;14.37;100.00;101042.25;4900188;29;20052;-86
2022/10/20 05:36:32;;;;;;;107.32;51.55;;;;;;;14.38;100.00;101048.44;4887780;29;20492;-86
2022/10/20 05:38:58;;;;;;;110.90;51.05;;;;;;;14.40;100.00;101041.91;4884566;29;20045;-86
2022/10/20 05:41:26;;;;;;;107.68;49.95;;;;;;;14.34;100.00;101049.78;4885801;29;20032;-84
2022/10/20 05:43:56;;;;;;;104.38;48.78;;;;;;;14.36;100.00;101039.75;4891415;29;20033;-89
2022/10/20 05:46:26;;;;;;;100.57;49.92;;;;;;;14.27;100.00;101040.78;4887579;29;20041;-91
2022/10/20 05:48:54;;;;;;;102.28;47.63;;;;;;;14.42;100.00;101044.38;4885026;29;20117;-85
2022/10/20 05:51:23;;;;;;;97.60;48.17;;;;;;;14.62;100.00;101045.63;4889002;29;20041;-88
2022/10/20 05:53:50;;;;;;;107.63;48.90;;;;;;;14.78;100.00;101039.38;4900172;29;20044;-90
2022/10/20 05:56:18;;;;;;;97.47;49.30;;;;;;;14.78;100.00;101045.50;4884775;29;20041;-91
2022/10/20 05:58:46;;;;;;;99.65;50.58;;;;;;;14.68;100.00;101036.09;4884838;29;20040;-90
2022/10/20 06:01:19;;;;;;;111.80;50.38;;;;;;;14.53;100.00;101038.66;4887544;29;20129;-91
2022/10/20 06:04:02;;;;;;;102.13;49.65;;;;;;;14.46;100.00;101037.69;4888162;29;20056;-90
2022/10/20 06:06:29;;;;;;;103.63;49.20;;;;;;;14.53;100.00;101049.34;4884116;29;20384;-91
2022/10/20 06:08:57;;;;;;;102.43;47.08;;;;;;;14.65;100.00;101050.59;4885816;29;20495;-91
2022/10/20 06:11:24;;;;;;;103.07;49.17;;;;;;;14.72;100.00;101056.91;4886839;29;20044;-89
2022/10/20 06:13:50;;;;;;;88.72;45.65;;;;;;;14.88;100.00;101056.78;4885238;29;20396;-90
2022/10/20 06:16:21;;;;;;;99.68;50.22;;;;;;;14.83;100.00;101058.34;4869477;29;20041;-90
2022/10/20 06:18:47;;;;;;;98.93;49.13;;;;;;;14.75;100.00;101056.53;4886242;29;20022;-89
2022/10/20 06:21:14;;;;;;;94.78;47.83;;;;;;;14.70;100.00;101063.41;4884940;29;20513;-91
2022/10/20 06:23:46;;;;;;;99.20;47.97;;;;;;;14.68;100.00;101054.78;4888117;29;20037;-92
2022/10/20 06:26:13;;;;;;;;;;;;;;;14.75;100.00;101061.88;4890744;29;20037;-91
2022/10/20 06:28:40;;;;;;;98.38;48.88;;;;;;;14.80;100.00;101067.53;4885688;29;19970;-89
2022/10/20 06:31:18;;;;;;;86.20;45.38;;;;;;;15.02;100.00;101071.22;4889410;29;20045;-93
2022/10/20 06:33:43;;;;;;;95.60;46.47;;;;;;;15.04;100.00;101069.22;4886286;29;20048;-92
2022/10/20 06:36:09;;;;;;;95.35;46.45;;;;;;;14.99;100.00;101071.56;4886427;29;20069;-89
2022/10/20 06:38:40;;;;;;;86.60;43.40;;;;;;;14.82;100.00;101078.84;4886461;29;20029;-91
2022/10/20 06:41:09;;;;;;;89.63;45.20;;;;;;;14.54;100.00;101080.34;4894837;29;20392;-91
2022/10/20 06:43:35;;;;;;;92.43;44.88;;;;;;;14.49;100.00;101080.88;4886893;29;20072;-90
2022/10/20 06:46:09;;;;;;;90.60;46.47;;;;;;;14.37;100.00;101078.75;4889153;29;20041;-91
2022/10/20 06:48:35;;;;;;;101.28;45.80;;;;;;;14.34;100.00;101089.78;4885649;29;20048;-90
2022/10/20 06:51:03;;;;;;;94.60;46.28;;;;;;;14.44;100.00;101087.72;4888304;29;20056;-90
2022/10/20 06:53:29;;;;;;;99.35;46.63;;;;;;;14.50;100.00;101084.38;4885449;29;20041;-91
2022/10/20 06:56:07;;;;;;;88.57;44.95;;;;;;;14.53;100.00;101096.50;4887756;29;20041;-90
2022/10/20 06:58:35;;;;;;;84.43;41.80;;;;;;;14.61;100.00;101092.00;4889001;29;20029;-91
2022/10/20 07:01:07;;;;;;;78.63;41.70;;;;;;;14.73;100.00;101097.75;4888722;29;20021;-88
2022/10/20 07:03:36;;;;;;;86.82;41.33;;;;;;;14.91;100.00;101106.34;4904980;29;20071;-91
2022/10/20 07:06:15;;;;;;;76.18;39.33;;;;;;;15.00;100.00;101114.13;4883864;29;20041;-90
2022/10/20 07:08:41;;;;;;;82.57;39.47;;;;;;;15.16;100.00;101107.00;4873439;29;20052;-91
2022/10/20 07:11:09;;;;;;;70.18;38.05;;;;;;;15.30;100.00;101103.56;4898263;23;20049;-89
2022/10/20 07:13:36;;;;;;;67.25;38.22;;;;;;;15.58;100.00;101096.69;4888783;29;20172;-89
2022/10/20 07:16:03;;;;;;;78.97;37.20;;;;;;;15.92;100.00;101102.38;4886886;29;20041;-89
2022/10/20 07:18:29;;;;;;;75.28;36.25;;;;;;;16.09;100.00;101113.72;4894699;29;20036;-90
2022/10/20 07:20:56;;;;;;;79.35;36.90;;;;;;;16.21;100.00;101108.75;4883139;29;20415;-89
2022/10/20 07:23:26;;;;;;;76.47;37.83;;;;;;;16.36;100.00;101117.59;4881012;29;20513;-90
2022/10/20 07:25:58;;;;;;;71.78;35.45;;;;;;;16.13;100.00;101117.72;4890078;29;20037;-91
2022/10/20 07:28:27;;;;;;;68.53;35.03;;;;;;;15.92;100.00;101137.13;4911253;29;20032;-90
2022/10/20 07:30:53;;;;;;;59.50;34.50;;;;;;;15.82;100.00;101133.03;4919349;29;20054;-90
2022/10/20 07:33:19;;;;;;;62.78;33.47;;;;;;;15.67;100.00;101126.84;4919990;29;20490;-89
2022/10/20 07:35:44;;;;;;;69.93;33.05;;;;;;;15.79;100.00;101131.56;4905366;29;20036;-91
2022/10/20 07:38:10;;;;;;;55.88;33.00;;;;;;;16.04;100.00;101134.84;4924530;29;20409;-90
2022/10/20 07:40:35;;;;;;;66.18;35.28;;;;;;;16.25;100.00;101140.28;4892975;29;20086;-91
2022/10/20 07:43:04;;;;;;;69.32;37.55;;;;;;;16.69;100.00;101145.66;4890113;29;20089;-90
2022/10/20 07:45:30;;;;;;;79.40;41.88;;;;;;;17.33;100.00;101143.94;4895288;29;20045;-91
2022/10/20 07:47:55;;;;;;;77.78;42.00;;;;;;;17.31;100.00;101134.41;4893973;29;20037;-89
2022/10/20 07:50:22;;;;;;;90.97;45.00;;;;;;;17.13;100.00;101148.25;4891646;29;20419;-90
2022/10/20 07:52:52;;;;;;;102.35;51.45;;;;;;;17.32;100.00;101138.75;4886743;29;20033;-90
2022/10/20 07:55:17;;;;;;;104.53;51.83;;;;;;;17.70;100.00;101140.16;4900742;29;20036;-90
2022/10/20 07:57:43;;;;;;;104.28;53.33;;;;;;;17.89;100.00;101144.88;4913531;29;20064;-91
2022/10/20 08:00:09;;;;;;;98.43;51.40;;;;;;;18.07;100.00;101147.91;4906262;29;20406;-90
2022/10/20 08:02:39;;;;;;;95.20;48.17;;;;;;;17.72;100.00;101150.72;4906164;29;20138;-90
2022/10/20 08:05:06;;;;;;;100.80;48.65;;;;;;;17.74;100.00;101146.81;4905341;29;20045;-91
2022/10/20 08:07:38;;;;;;;87.03;46.30;;;;;;;17.81;100.00;101150.38;4904922;29;20043;-91
2022/10/20 08:10:05;;;;;;;76.93;42.60;;;;;;;18.11;100.00;101153.72;4897085;29;20493;-89
2022/10/20 08:12:30;;;;;;;60.45;34.67;;;;;;;18.42;100.00;101154.13;4886417;29;20047;-89
2022/10/20 08:14:56;;;;;;;64.68;35.55;;;;;;;18.78;100.00;101159.28;4870085;29;20041;-90
2022/10/20 08:17:25;;;;;;;67.20;34.88;;;;;;;19.03;100.00;101157.72;4870507;29;20050;-87
2022/10/20 08:19:50;;;;;;;65.10;34.60;;;;;;;18.88;100.00;101157.06;4888109;29;20029;-91
2022/10/20 08:22:39;;;;;;;60.70;35.22;;;;;;;18.82;100.00;101157.88;4895519;29;20040;-91
2022/10/20 08:25:05;;;;;;;65.32;36.70;;;;;;;18.66;100.00;101152.81;4903083;29;20127;-87
2022/10/20 08:27:32;;;;;;;61.83;34.17;;;;;;;18.42;100.00;101161.34;4904780;29;20048;-88
2022/10/20 08:29:57;;;;;;;61.85;36.58;;;;;;;18.14;100.00;101157.84;4897261;29;20045;-88
2022/10/20 08:32:43;;;;;;;73.22;39.33;;;;;;;18.01;100.00;101159.41;4888308;29;21502;-90
2022/10/20 08:35:13;;;;;;;71.60;39.55;;;;;;;18.05;100.00;101166.06;4865040;29;20373;-86
2022/10/20 08:37:38;;;;;;;73.43;40.33;;;;;;;17.94;100.00;101171.94;4862102;29;20045;-89
2022/10/20 08:40:04;;;;;;;71.78;39.90;;;;;;;17.89;100.00;101170.88;4884745;29;20044;-89
2022/10/20 08:42:38;;;;;;;79.18;38.58;;;;;;;18.02;100.00;101177.19;4873668;29;20057;-88
2022/10/20 08:45:04;;;;;;;67.63;37.78;;;;;;;18.40;100.00;101183.00;4894046;29;20091;-87
2022/10/20 08:47:35;;;;;;;71.18;38.33;;;;;;;18.40;100.00;101183.00;4899619;29;20041;-89
2022/10/20 08:50:06;;;;;;;72.78;41.05;;;;;;;18.37;100.00;101185.25;4905929;29;20045;-91
2022/10/20 08:52:32;;;;;;;83.88;42.03;;;;;;;18.48;100.00;101187.41;4909598;29;20112;-91
2022/10/20 08:55:03;;;;;;;76.43;40.92;;;;;;;18.46;100.00;101186.78;4909238;29;20045;-89
2022/10/20 08:57:31;;;;;;;86.07;46.55;;;;;;;18.28;100.00;101186.44;4910453;29;20402;-89
2022/10/20 09:00:31;;;;;;;87.22;45.80;;;;;;;18.27;100.00;101190.13;4911244;29;20542;-90
2022/10/20 09:03:10;;;;;;;90.28;48.42;;;;;;;18.25;100.00;101184.97;4906458;29;20056;-90
2022/10/20 09:05:41;;;;;;;86.75;47.45;;;;;;;18.29;100.00;101188.09;4887324;29;20415;-91
2022/10/20 09:08:11;;;;;;;97.05;48.40;;;;;;;18.24;100.00;101186.00;4887443;29;20073;-89
2022/10/20 09:10:43;;;;;;;89.43;48.72;;;;;;;18.18;100.00;101185.94;4875076;29;20064;-90
2022/10/20 09:13:27;;;;;;;95.35;50.90;;;;;;;18.16;100.00;101172.75;4885863;29;20029;-91
2022/10/20 09:15:58;;;;;;;100.80;50.72;;;;;;;18.51;100.00;101176.28;4885978;29;20048;-90
2022/10/20 09:18:25;;;;;;;97.00;49.15;;;;;;;18.66;100.00;101163.56;4885189;29;20089;-92
2022/10/20 09:21:04;;;;;;;92.55;49.20;;;;;;;18.67;100.00;101170.59;4883565;29;20033;-90
2022/10/20 09:23:35;;;;;;;91.65;49.80;;;;;;;18.62;100.00;101167.69;4887062;29;20086;-90
2022/10/20 09:26:01;;;;;;;104.90;54.28;;;;;;;18.82;100.00;101182.03;4879180;29;20093;-88
2022/10/20 09:28:30;;;;;;;103.00;55.80;;;;;;;18.89;100.00;101179.38;4902125;29;20487;-91
2022/10/20 09:30:56;;;;;;;109.55;59.03;;;;;;;18.83;100.00;101174.78;4902509;29;20040;-88
2022/10/20 09:33:27;;;;;;;115.18;58.28;;;;;;;18.92;100.00;101166.38;4887639;29;20037;-89
2022/10/20 09:36:00;;;;;;;113.22;58.15;;;;;;;19.17;100.00;101171.19;4903451;29;20041;-90
2022/10/20 09:38:32;;;;;;;115.50;59.03;;;;;;;18.89;100.00;101163.28;4902074;29;20084;-89
2022/10/20 09:41:09;;;;;;;106.40;57.20;;;;;;;18.97;100.00;101171.97;4888356;29;20045;-89
2022/10/20 09:44:09;;;;;;;111.50;58.63;;;;;;;19.07;100.00;101166.22;4926767;23;20446;-92
2022/10/20 09:46:47;;;;;;;116.95;60.40;;;;;;;19.08;100.00;101171.41;4909832;29;20120;-91
2022/10/20 09:49:44;;;;;;;118.30;62.60;;;;;;;19.03;100.00;101171.16;4885498;29;20498;-91
2022/10/20 09:52:22;;;;;;;115.35;62.30;;;;;;;19.22;100.00;101171.44;4854909;29;20057;-90
2022/10/20 09:54:50;;;;;;;119.20;60.17;;;;;;;19.66;100.00;101171.75;4864381;29;20033;-90
2022/10/20 09:57:18;;;;;;;119.70;64.43;;;;;;;19.91;100.00;101172.81;4867353;29;20137;-90
2022/10/20 09:59:47;;;;;;;119.28;64.53;;;;;;;20.37;100.00;101163.88;4865896;29;20049;-88
2022/10/20 10:02:15;;;;;;;125.60;64.10;;;;;;;20.75;100.00;101169.38;4856565;29;20041;-89
2022/10/20 10:04:43;;;;;;;128.02;65.97;;;;;;;20.73;100.00;101174.97;4883394;29;20029;-90
2022/10/20 10:07:21;;;;;;;138.07;69.47;;;;;;;20.44;100.00;101176.31;4885470;29;20037;-88
2022/10/20 10:10:20;;;;;;;148.25;72.03;;;;;;;20.56;100.00;101168.38;4872092;29;20043;-90
2022/10/20 10:12:54;;;;;;;139.85;72.05;;;;;;;20.56;100.00;101176.47;4902733;29;20037;-88
2022/10/20 10:15:45;;;;;;;152.90;77.88;;;;;;;20.56;100.00;101173.78;4907938;29;20039;-89
2022/10/20 10:18:14;;;;;;;147.00;74.13;;;;;;;20.87;100.00;101170.34;4906594;29;20048;-89
2022/10/20 10:20:40;;;;;;;151.93;76.85;;;;;;;21.23;100.00;101165.25;4903321;29;20047;-90
2022/10/20 10:23:39;;;;;;;159.73;77.65;;;;;;;21.72;100.00;101164.47;4901842;29;20049;-86
2022/10/20 10:26:32;;;;;;;151.68;79.35;;;;;;;21.78;100.00;101165.47;4906182;29;20045;-86
2022/10/20 10:28:58;;;;;;;;;;;;;;;21.82;100.00;101172.91;4907903;29;20037;-88
2022/10/20 10:31:24;;;;;;;150.77;76.68;;;;;;;22.11;100.00;101169.56;4906896;29;19947;-88
2022/10/20 10:33:54;;;;;;;147.25;76.78;;;;;;;21.92;100.00;101167.88;4903605;29;20037;-91
2022/10/20 10:36:31;;;;;;;157.55;79.00;;;;;;;21.46;100.00;101164.69;4900964;29;20399;-89
2022/10/20 10:38:58;;;;;;;148.65;78.78;;;;;;;21.01;100.00;101161.97;4903445;29;20037;-89
2022/10/20 10:41:48;;;;;;;151.00;79.95;;;;;;;20.62;100.00;101160.28;4894298;29;20044;-89
2022/10/20 10:44:14;;;;;;;153.82;80.22;;;;;;;20.26;100.00;101162.63;4884159;29;20048;-89
2022/10/20 10:46:43;;;;;;;150.52;80.07;;;;;;;20.08;100.00;101157.88;4887887;29;20037;-92
2022/10/20 10:49:31;;;;;;;167.23;84.07;;;;;;;20.02;100.00;101145.25;4886712;29;20097;-89
2022/10/20 10:52:14;;;;;;;161.15;80.97;;;;;;;19.96;100.00;101146.09;4883754;29;20071;-88
2022/10/20 10:55:01;;;;;;;164.45;83.07;;;;;;;19.80;100.00;101146.53;4910670;29;20111;-87
2022/10/20 10:57:42;;;;;;;147.27;80.38;;;;;;;20.08;100.00;101144.41;4886249;29;20036;-91
2022/10/20 11:00:22;;;;;;;162.30;82.30;;;;;;;19.91;100.00;101148.59;4893656;29;20111;-90
2022/10/20 11:03:12;;;;;;;165.05;82.18;;;;;;;19.70;100.00;101140.72;4892691;29;20093;-90
2022/10/20 11:06:01;;;;;;;167.90;81.75;;;;;;;19.57;100.00;101143.41;4888870;29;20047;-89
2022/10/20 11:08:48;;;;;;;159.13;80.78;;;;;;;19.64;100.00;101135.34;4889181;29;20040;-93
2022/10/20 11:11:53;;;;;;;157.55;81.95;;;;;;;19.24;100.00;101135.25;4888493;29;20087;-89
2022/10/20 11:14:44;;;;;;;169.80;83.00;;;;;;;18.98;100.00;101119.91;4922590;23;20045;-89
2022/10/20 11:17:25;;;;;;;159.80;84.82;;;;;;;18.93;100.00;101125.03;4896361;29;20040;-89